Station Historical Data
Daily Summary for August 9, 2017 Units:  Metric    English   Both
« Previous Day
Next Day »
Daily Weekly Monthly Yearly Custom
  High: Low: Average:
Temperature: 26.8 °C 16.6 °C 21.7 °C
Dew Point: 19.1 °C 12.9 °C 16.1 °C
Humidity: 88% 52% 72%
Wind Speed: 19.3km/h 0km/h 5.5km/h
Wind Gust: 30.6km/h - -
Wind- - SW
Pressure: 1022.2 hPa 1019.2 hPa -
Precipitation: 0 mm    
Historical Graphs
 
 
Tabular Data for August 9, 2017
Time Temperature Dew Point Pressure Wind Wind Speed Wind Gust Humidity Rainfall Rate (Hourly)
00:04 20.6 °C 17.2 °C 1019.2 hPa SW 8 km/h 14.5 km/h 81% 0 mm
00:09 20.6 °C 17.4 °C 1019.2 hPa SW 4.8 km/h 14.5 km/h 82% 0 mm
00:14 20.6 °C 17.4 °C 1019.2 hPa SW 4.8 km/h 14.5 km/h 82% 0 mm
00:19 20.5 °C 17.3 °C 1019.2 hPa SSW 4.8 km/h 12.9 km/h 82% 0 mm
00:24 20.1 °C 16.7 °C 1019.2 hPa SSW 3.2 km/h 12.9 km/h 81% 0 mm
00:29 19.8 °C 16.6 °C 1019.2 hPa SW 3.2 km/h 8 km/h 82% 0 mm
00:34 19.7 °C 16.7 °C 1019.2 hPa SSW 3.2 km/h 8 km/h 83% 0 mm
00:39 19.6 °C 16.6 °C 1019.2 hPa SW 1.6 km/h 4.8 km/h 83% 0 mm
00:44 19.4 °C 16.4 °C 1019.2 hPa SSW 3.2 km/h 9.7 km/h 83% 0 mm
00:49 19.3 °C 16.5 °C 1019.2 hPa SSW 3.2 km/h 11.3 km/h 84% 0 mm
00:54 19.2 °C 16.4 °C 1019.2 hPa SSW 3.2 km/h 11.3 km/h 84% 0 mm
00:59 19.1 °C 16.2 °C 1019.5 hPa SSW 8 km/h 9.7 km/h 83% 0 mm
01:04 18.8 °C 15.9 °C 1019.5 hPa SW 3.2 km/h 11.3 km/h 83% 0 mm
01:09 18.6 °C 15.7 °C 1019.5 hPa SSW 4.8 km/h 6.4 km/h 83% 0 mm
01:14 18.5 °C 15.7 °C 1019.5 hPa SSW 3.2 km/h 8 km/h 84% 0 mm
01:19 18.4 °C 15.7 °C 1019.5 hPa SSW 3.2 km/h 8 km/h 84% 0 mm
01:24 18.4 °C 15.7 °C 1019.5 hPa SSW 4.8 km/h 9.7 km/h 84% 0 mm
01:29 18.4 °C 15.9 °C 1019.5 hPa SSW 4.8 km/h 9.7 km/h 85% 0 mm
01:34 18.4 °C 15.8 °C 1019.5 hPa Calm   6.4 km/h 85% 0 mm
01:39 18.3 °C 15.8 °C 1019.5 hPa Calm   6.4 km/h 85% 0 mm
01:44 18.3 °C 15.7 °C 1019.5 hPa Calm     85% 0 mm
01:49 18.2 °C 15.7 °C 1019.5 hPa Calm   1.6 km/h 85% 0 mm
01:54 18.1 °C 15.6 °C 1019.5 hPa Calm   3.2 km/h 85% 0 mm
01:59 18 °C 15.6 °C 1019.5 hPa Calm   3.2 km/h 86% 0 mm
02:04 17.9 °C 15.5 °C 1019.5 hPa Calm     86% 0 mm
02:09 17.8 °C 15.4 °C 1019.5 hPa Calm   3.2 km/h 86% 0 mm
02:14 17.8 °C 15.6 °C 1019.5 hPa Calm     87% 0 mm
02:19 17.7 °C 15.6 °C 1019.5 hPa Calm   3.2 km/h 87% 0 mm
02:24 17.8 °C 15.6 °C 1019.5 hPa Calm   4.8 km/h 87% 0 mm
02:29 17.9 °C 15.9 °C 1019.5 hPa Calm   8 km/h 88% 0 mm
02:34 18.1 °C 15.8 °C 1019.5 hPa SSW 1.6 km/h 8 km/h 87% 0 mm
02:39 18.2 °C 15.9 °C 1019.5 hPa SW 3.2 km/h 6.4 km/h 87% 0 mm
02:44 18.2 °C 15.9 °C 1019.5 hPa SSW 3.2 km/h 6.4 km/h 87% 0 mm
02:49 18.2 °C 15.9 °C 1019.5 hPa SSW 1.6 km/h 6.4 km/h 87% 0 mm
02:54 18.2 °C 15.8 °C 1019.5 hPa SSW 1.6 km/h 6.4 km/h 86% 0 mm
02:59 18 °C 15.6 °C 1019.5 hPa Calm   4.8 km/h 86% 0 mm
03:04 17.8 °C 15.6 °C 1019.5 hPa SW 4.8 km/h 6.4 km/h 87% 0 mm
03:09 17.8 °C 15.6 °C 1019.5 hPa SW 3.2 km/h 4.8 km/h 87% 0 mm
03:14 17.8 °C 15.6 °C 1019.5 hPa SSW 1.6 km/h 9.7 km/h 87% 0 mm
03:19 17.8 °C 15.7 °C 1019.5 hPa SSW 3.2 km/h 8 km/h 87% 0 mm
03:24 17.8 °C 15.7 °C 1019.5 hPa SW 1.6 km/h 8 km/h 87% 0 mm
03:29 17.8 °C 15.6 °C 1019.5 hPa SW 1.6 km/h 6.4 km/h 87% 0 mm
03:34 17.8 °C 15.7 °C 1019.5 hPa SW 4.8 km/h 9.7 km/h 87% 0 mm
03:39 17.8 °C 15.7 °C 1019.5 hPa Calm   8 km/h 87% 0 mm
03:44 17.8 °C 15.4 °C 1019.5 hPa SSW 4.8 km/h 4.8 km/h 86% 0 mm
03:49 17.7 °C 15.3 °C 1019.5 hPa Calm   4.8 km/h 86% 0 mm
03:54 17.6 °C 15.2 °C 1019.5 hPa Calm   4.8 km/h 86% 0 mm
03:59 17.7 °C 15.3 °C 1019.9 hPa Calm   6.4 km/h 86% 0 mm
04:04 17.6 °C 15.2 °C 1019.9 hPa Calm   6.4 km/h 86% 0 mm
04:09 17.6 °C 15.2 °C 1019.9 hPa Calm     86% 0 mm
04:14 17.5 °C 14.9 °C 1019.9 hPa Calm     85% 0 mm
04:19 17.4 °C 14.9 °C 1019.9 hPa Calm     85% 0 mm
04:24 17.3 °C 14.8 °C 1019.9 hPa Calm     85% 0 mm
04:29 17.3 °C 14.7 °C 1019.9 hPa Calm     85% 0 mm
04:34 17.2 °C 14.6 °C 1019.9 hPa Calm     85% 0 mm
04:39 17.1 °C 14.5 °C 1019.9 hPa Calm     85% 0 mm
04:44 17.1 °C 14.5 °C 1019.9 hPa Calm     85% 0 mm
04:49 17.1 °C 14.6 °C 1019.9 hPa Calm     85% 0 mm
04:54 17.1 °C 14.4 °C 1019.9 hPa Calm     84% 0 mm
04:59 17.1 °C 14.4 °C 1019.9 hPa Calm     84% 0 mm
05:04 17.1 °C 14.3 °C 1019.9 hPa Calm   6.4 km/h 84% 0 mm
05:09 17.1 °C 14.2 °C 1019.9 hPa SW 1.6 km/h 6.4 km/h 83% 0 mm
05:14 17 °C 14.1 °C 1020.2 hPa SW 1.6 km/h 8 km/h 83% 0 mm
05:19 17 °C 14.1 °C 1020.2 hPa SW 3.2 km/h 4.8 km/h 83% 0 mm
05:24 16.9 °C 13.8 °C 1020.2 hPa SW 3.2 km/h 6.4 km/h 82% 0 mm
05:29 16.9 °C 13.8 °C 1020.2 hPa Calm   6.4 km/h 82% 0 mm
05:34 16.8 °C 13.7 °C 1020.2 hPa SW 1.6 km/h 4.8 km/h 82% 0 mm
05:39 16.8 °C 13.7 °C 1020.2 hPa SW 1.6 km/h 4.8 km/h 82% 0 mm
05:44 16.8 °C 13.7 °C 1020.2 hPa Calm   3.2 km/h 82% 0 mm
05:49 16.7 °C 13.6 °C 1020.5 hPa SW 1.6 km/h 4.8 km/h 82% 0 mm
05:54 16.7 °C 13.6 °C 1020.2 hPa SSW 3.2 km/h 6.4 km/h 82% 0 mm
05:59 16.7 °C 13.4 °C 1020.5 hPa SSW 3.2 km/h 4.8 km/h 81% 0 mm
06:04 16.7 °C 13.4 °C 1020.5 hPa SSW 1.6 km/h 6.4 km/h 81% 0 mm
06:09 16.7 °C 13.3 °C 1020.5 hPa SSW 3.2 km/h 8 km/h 80% 0 mm
06:14 16.7 °C 13.2 °C 1020.5 hPa SSW 1.6 km/h 8 km/h 80% 0 mm
06:19 16.7 °C 13.2 °C 1020.5 hPa Calm     80% 0 mm
06:24 16.6 °C 13.2 °C 1020.5 hPa Calm     80% 0 mm
06:29 16.6 °C 13.1 °C 1020.5 hPa Calm     80% 0 mm
06:34 16.6 °C 12.9 °C 1020.5 hPa Calm     79% 0 mm
06:39 16.6 °C 12.9 °C 1020.5 hPa Calm     79% 0 mm
06:44 16.6 °C 12.9 °C 1020.5 hPa Calm     79% 0 mm
06:49 16.6 °C 12.9 °C 1020.9 hPa Calm     79% 0 mm
06:54 16.7 °C 13.1 °C 1020.9 hPa Calm     79% 0 mm
06:59 16.8 °C 13.2 °C 1020.9 hPa Calm     79% 0 mm
07:04 16.9 °C 13.1 °C 1020.9 hPa Calm     78% 0 mm
07:09 17.2 °C 13.3 °C 1020.9 hPa Calm     78% 0 mm
07:14 17.3 °C 13.3 °C 1020.9 hPa Calm     77% 0 mm
07:19 17.5 °C 13.4 °C 1020.9 hPa Calm   4.8 km/h 77% 0 mm
07:24 17.7 °C 13.6 °C 1020.9 hPa Calm     77% 0 mm
07:29 18 °C 13.5 °C 1020.9 hPa SSW 3.2 km/h 4.8 km/h 75% 0 mm
07:34 18.2 °C 13.5 °C 1020.9 hPa SSW 3.2 km/h 6.4 km/h 74% 0 mm
07:39 18.4 °C 13.7 °C 1020.9 hPa SSW 3.2 km/h 8 km/h 74% 0 mm
07:44 18.7 °C 13.7 °C 1020.9 hPa SSW 3.2 km/h 8 km/h 73% 0 mm
07:49 18.9 °C 13.8 °C 1020.9 hPa SSW 3.2 km/h 9.7 km/h 72% 0 mm
07:54 19.1 °C 13.7 °C 1020.9 hPa SSW 4.8 km/h 9.7 km/h 71% 0 mm
07:59 19.3 °C 14.2 °C 1020.9 hPa SSW 4.8 km/h 9.7 km/h 72% 0 mm
08:04 19.5 °C 13.9 °C 1020.9 hPa SSW 4.8 km/h 9.7 km/h 70% 0 mm
08:09 19.7 °C 14.1 °C 1020.9 hPa SW 4.8 km/h 9.7 km/h 70% 0 mm
08:14 19.5 °C 13.9 °C 1021.2 hPa SW 3.2 km/h 11.3 km/h 70% 0 mm
08:19 19.4 °C 13.8 °C 1021.2 hPa SW 1.6 km/h 9.7 km/h 70% 0 mm
08:24 19.5 °C 13.9 °C 1021.2 hPa SSW 8 km/h 8 km/h 70% 0 mm
08:29 19.8 °C 14.2 °C 1021.2 hPa SW 3.2 km/h 8 km/h 70% 0 mm
08:34 20.2 °C 14.3 °C 1021.2 hPa SW 1.6 km/h 6.4 km/h 69% 0 mm
08:39 20.6 °C 14.9 °C 1021.2 hPa Calm   9.7 km/h 70% 0 mm
08:44 20.8 °C 14.5 °C 1021.2 hPa SW 3.2 km/h 9.7 km/h 67% 0 mm
08:49 21 °C 14.6 °C 1021.2 hPa SW 4.8 km/h 9.7 km/h 67% 0 mm
08:54 21.3 °C 14.7 °C 1021.2 hPa SW 4.8 km/h 11.3 km/h 66% 0 mm
08:59 21.4 °C 15.1 °C 1021.2 hPa SW 4.8 km/h 11.3 km/h 67% 0 mm
09:04 21.7 °C 14.8 °C 1021.2 hPa SW 3.2 km/h 11.3 km/h 65% 0 mm
09:09 21.9 °C 14.8 °C 1021.2 hPa SSW 4.8 km/h 14.5 km/h 64% 0 mm
09:14 21.9 °C 14.5 °C 1021.6 hPa SW 3.2 km/h 17.7 km/h 63% 0 mm
09:19 22.1 °C 14.7 °C 1021.6 hPa SW 6.4 km/h 17.7 km/h 63% 0 mm
09:24 22.3 °C 14.9 °C 1021.6 hPa SW 8 km/h 12.9 km/h 63% 0 mm
09:29 22.4 °C 15 °C 1021.6 hPa WSW 8 km/h 14.5 km/h 63% 0 mm
09:34 22.7 °C 15.3 °C 1021.6 hPa SW 6.4 km/h 14.5 km/h 63% 0 mm
09:39 22.6 °C 15.2 °C 1021.6 hPa SSW 8 km/h 14.5 km/h 63% 0 mm
09:44 22.3 °C 14.7 °C 1021.6 hPa SSW 6.4 km/h 14.5 km/h 62% 0 mm
09:49 22.2 °C 14.8 °C 1021.6 hPa SW 8 km/h 17.7 km/h 63% 0 mm
09:54 22.7 °C 15.5 °C 1021.6 hPa SW 8 km/h 17.7 km/h 64% 0 mm
09:59 22.8 °C 15.4 °C 1021.6 hPa SW 8 km/h 17.7 km/h 63% 0 mm
10:04 22.7 °C 15.3 °C 1021.6 hPa WSW 8 km/h 17.7 km/h 63% 0 mm
10:09 22.8 °C 15.4 °C 1021.6 hPa SW 4.8 km/h 17.7 km/h 63% 0 mm
10:14 23 °C 15.3 °C 1021.6 hPa WSW 9.7 km/h 22.5 km/h 62% 0 mm
10:19 23.1 °C 15.4 °C 1021.6 hPa SW 14.5 km/h 20.9 km/h 62% 0 mm
10:24 23.1 °C 15.6 °C 1021.6 hPa SW 9.7 km/h 20.9 km/h 63% 0 mm
10:29 23.2 °C 15.7 °C 1021.6 hPa WSW 14.5 km/h 16.1 km/h 63% 0 mm
10:34 23.2 °C 15.7 °C 1021.6 hPa West 19.3 km/h 24.1 km/h 63% 0 mm
10:39 23.4 °C 16.2 °C 1021.6 hPa WSW 11.3 km/h 24.1 km/h 64% 0 mm
10:44 23.6 °C 16.3 °C 1021.6 hPa SW 14.5 km/h 19.3 km/h 64% 0 mm
10:49 23.5 °C 16.3 °C 1021.6 hPa WSW 6.4 km/h 17.7 km/h 64% 0 mm
10:54 23.8 °C 16.3 °C 1021.6 hPa WSW 11.3 km/h 22.5 km/h 63% 0 mm
10:59 23.8 °C 16.6 °C 1021.6 hPa WSW 9.7 km/h 22.5 km/h 64% 0 mm
11:04 23.7 °C 16.5 °C 1021.6 hPa WSW 11.3 km/h 24.1 km/h 64% 0 mm
11:09 23.9 °C 16.7 °C 1021.6 hPa WSW 11.3 km/h 25.7 km/h 64% 0 mm
11:14 23.8 °C 16.8 °C 1021.6 hPa WSW 11.3 km/h 25.7 km/h 65% 0 mm
11:19 23.9 °C 16.7 °C 1021.6 hPa WSW 11.3 km/h 25.7 km/h 64% 0 mm
11:24 24 °C 17 °C 1021.6 hPa WSW 11.3 km/h 20.9 km/h 65% 0 mm
11:29 24.1 °C 17.1 °C 1021.6 hPa WSW 11.3 km/h 24.1 km/h 65% 0 mm
11:34 24.2 °C 17.4 °C 1021.6 hPa SSW 6.4 km/h 19.3 km/h 66% 0 mm
11:39 24.6 °C 17.6 °C 1021.6 hPa SSW 11.3 km/h 20.9 km/h 65% 0 mm
11:44 24.4 °C 17.2 °C 1021.6 hPa SW 11.3 km/h 24.1 km/h 64% 0 mm
11:49 24.4 °C 17.4 °C 1021.6 hPa SW 12.9 km/h 20.9 km/h 65% 0 mm
11:54 24.3 °C 17.3 °C 1021.6 hPa West 8 km/h 30.6 km/h 65% 0 mm
11:59 24.7 °C 17.7 °C 1021.6 hPa SW 12.9 km/h 30.6 km/h 65% 0 mm
12:04 24.8 °C 17.8 °C 1021.6 hPa WSW 9.7 km/h 22.5 km/h 65% 0 mm
12:09 25 °C 18.7 °C 1021.6 hPa WSW 9.7 km/h 20.9 km/h 68% 0 mm
12:14 25 °C 17.7 °C 1021.6 hPa WSW 9.7 km/h 24.1 km/h 64% 0 mm
12:19 24.6 °C 17.6 °C 1021.6 hPa WSW 11.3 km/h 24.1 km/h 65% 0 mm
12:24 24.8 °C 18.2 °C 1021.6 hPa WSW 11.3 km/h 24.1 km/h 67% 0 mm
12:29 24.7 °C 17.7 °C 1021.6 hPa SW 9.7 km/h 24.1 km/h 65% 0 mm
12:34 24.7 °C 17.9 °C 1021.6 hPa WSW 11.3 km/h 24.1 km/h 66% 0 mm
12:39 24.7 °C 18.1 °C 1021.6 hPa West 8 km/h 25.7 km/h 67% 0 mm
12:44 24.8 °C 18.2 °C 1021.6 hPa SW 14.5 km/h 22.5 km/h 67% 0 mm
12:49 24.9 °C 18.2 °C 1021.6 hPa South 12.9 km/h 19.3 km/h 66% 0 mm
12:54 25.1 °C 18.5 °C 1021.6 hPa West 8 km/h 22.5 km/h 67% 0 mm
12:59 25.2 °C 18.4 °C 1021.6 hPa SW 9.7 km/h 19.3 km/h 66% 0 mm
13:04 25.1 °C 18.3 °C 1021.6 hPa WSW 11.3 km/h 22.5 km/h 66% 0 mm
13:09 25 °C 18.2 °C 1021.6 hPa WSW 11.3 km/h 25.7 km/h 66% 0 mm
13:14 25.4 °C 19.1 °C 1021.2 hPa WSW 9.7 km/h 25.7 km/h 68% 0 mm
13:19 25.3 °C 18.3 °C 1021.2 hPa WSW 9.7 km/h 20.9 km/h 65% 0 mm
13:24 25.2 °C 18.1 °C 1021.6 hPa WSW 11.3 km/h 22.5 km/h 65% 0 mm
13:29 25.2 °C 17.6 °C 1021.2 hPa WSW 11.3 km/h 22.5 km/h 63% 0 mm
13:34 25.1 °C 18.1 °C 1021.2 hPa SW 19.3 km/h 27.4 km/h 65% 0 mm
13:39 25.2 °C 17.9 °C 1021.2 hPa SW 9.7 km/h 25.7 km/h 64% 0 mm
13:44 25.5 °C 17.9 °C 1021.2 hPa WSW 11.3 km/h 20.9 km/h 63% 0 mm
13:49 25.4 °C 18.4 °C 1021.2 hPa SSW 9.7 km/h 22.5 km/h 65% 0 mm
13:54 25.6 °C 18.3 °C 1021.2 hPa SW 14.5 km/h 20.9 km/h 64% 0 mm
13:59 25.5 °C 17.9 °C 1021.2 hPa SW 9.7 km/h 25.7 km/h 63% 0 mm
14:04 25.8 °C 18.3 °C 1020.9 hPa WSW 11.3 km/h 20.9 km/h 63% 0 mm
14:09 25.8 °C 17.4 °C 1020.9 hPa WSW 11.3 km/h 20.9 km/h 60% 0 mm
14:14 25.9 °C 17.8 °C 1020.9 hPa SW 11.3 km/h 29 km/h 61% 0 mm
14:19 25.7 °C 16.8 °C 1020.9 hPa SW 12.9 km/h 29 km/h 58% 0 mm
14:24 25.7 °C 16.8 °C 1020.9 hPa SW 12.9 km/h 25.7 km/h 58% 0 mm
14:29 25.8 °C 17.5 °C 1020.9 hPa WSW 16.1 km/h 24.1 km/h 60% 0 mm
14:34 25.9 °C 17.1 °C 1020.9 hPa West 14.5 km/h 22.5 km/h 58% 0 mm
14:39 25.9 °C 17 °C 1020.9 hPa WSW 12.9 km/h 27.4 km/h 58% 0 mm
14:44 26.1 °C 17.2 °C 1020.9 hPa WSW 12.9 km/h 27.4 km/h 58% 0 mm
14:49 26.2 °C 16.7 °C 1020.9 hPa SW 11.3 km/h 29 km/h 56% 0 mm
14:54 26.1 °C 17.2 °C 1020.9 hPa SW 12.9 km/h 29 km/h 58% 0 mm
14:59 26.3 °C 17.4 °C 1020.9 hPa WNW 16.1 km/h 24.1 km/h 58% 0 mm
15:04 26.2 °C 17.3 °C 1020.9 hPa WSW 6.4 km/h 20.9 km/h 58% 0 mm
15:09 26.3 °C 17.1 °C 1020.9 hPa WSW 11.3 km/h 25.7 km/h 57% 0 mm
15:14 26.1 °C 17.4 °C 1020.9 hPa WSW 11.3 km/h 25.7 km/h 59% 0 mm
15:19 26.7 °C 18.1 °C 1020.9 hPa WSW 4.8 km/h 14.5 km/h 59% 0 mm
15:24 26.8 °C 17.6 °C 1020.9 hPa West 11.3 km/h 24.1 km/h 57% 0 mm
15:29 26.3 °C 16.6 °C 1020.9 hPa WSW 12.9 km/h 20.9 km/h 55% 0 mm
15:34 26.4 °C 16.6 °C 1020.9 hPa SSW 11.3 km/h 19.3 km/h 55% 0 mm
15:39 26.6 °C 17.1 °C 1020.9 hPa South 12.9 km/h 22.5 km/h 56% 0 mm
15:44 26.7 °C 16.9 °C 1020.9 hPa WSW 9.7 km/h 22.5 km/h 55% 0 mm
15:49 26.8 °C 16.4 °C 1020.5 hPa WSW 9.7 km/h 19.3 km/h 53% 0 mm
15:54 26.6 °C 16.8 °C 1020.5 hPa WSW 11.3 km/h 24.1 km/h 55% 0 mm
15:59 26.5 °C 16.7 °C 1020.5 hPa WSW 11.3 km/h 24.1 km/h 55% 0 mm
16:04 26.6 °C 16.8 °C 1020.5 hPa WSW 4.8 km/h 19.3 km/h 55% 0 mm
16:09 26.7 °C 16.1 °C 1020.5 hPa SW 8 km/h 22.5 km/h 52% 0 mm
16:14 26.4 °C 16.1 °C 1020.5 hPa WSW 11.3 km/h 22.5 km/h 53% 0 mm
16:19 26.2 °C 16.2 °C 1020.5 hPa WSW 12.9 km/h 24.1 km/h 54% 0 mm
16:24 26.6 °C 17.1 °C 1020.5 hPa WNW 14.5 km/h 19.3 km/h 56% 0 mm
16:29 26.5 °C 16.4 °C 1020.5 hPa WSW 12.9 km/h 22.5 km/h 54% 0 mm
16:34 26.4 °C 16.9 °C 1020.5 hPa WSW 9.7 km/h 19.3 km/h 56% 0 mm
16:39 26.3 °C 16.5 °C 1020.5 hPa WSW 12.9 km/h 22.5 km/h 55% 0 mm
16:44 26.3 °C 16.5 °C 1020.5 hPa SW 9.7 km/h 17.7 km/h 55% 0 mm
16:49 26.2 °C 16.4 °C 1020.5 hPa WSW 11.3 km/h 22.5 km/h 55% 0 mm
16:54 26.2 °C 16.7 °C 1020.5 hPa WSW 9.7 km/h 22.5 km/h 56% 0 mm
16:59 26.3 °C 16.8 °C 1020.5 hPa WSW 9.7 km/h 20.9 km/h 56% 0 mm
17:04 26.3 °C 16.8 °C 1020.5 hPa SW 8 km/h 20.9 km/h 56% 0 mm
17:09 26.2 °C 17.3 °C 1020.9 hPa SW 11.3 km/h 22.5 km/h 58% 0 mm
17:14 26.1 °C 17.7 °C 1020.9 hPa SW 6.4 km/h 17.7 km/h 60% 0 mm
17:19 26.3 °C 17.9 °C 1020.5 hPa WSW 8 km/h 17.7 km/h 60% 0 mm
17:24 26.1 °C 17.2 °C 1020.9 hPa West 6.4 km/h 19.3 km/h 58% 0 mm
17:29 25.8 °C 17.4 °C 1020.5 hPa NNW 12.9 km/h 22.5 km/h 60% 0 mm
17:34 25.6 °C 16.9 °C 1020.5 hPa WSW 16.1 km/h 20.9 km/h 59% 0 mm
17:39 25.4 °C 17.1 °C 1020.5 hPa WSW 3.2 km/h 17.7 km/h 60% 0 mm
17:44 25.5 °C 17.4 °C 1020.5 hPa WSW 11.3 km/h 16.1 km/h 61% 0 mm
17:49 25.6 °C 17.7 °C 1020.5 hPa WSW 8 km/h 16.1 km/h 62% 0 mm
17:54 25.5 °C 17.4 °C 1020.5 hPa WSW 9.7 km/h 20.9 km/h 61% 0 mm
17:59 25.4 °C 17.1 °C 1020.5 hPa SW 9.7 km/h 17.7 km/h 60% 0 mm
18:04 25.4 °C 17.6 °C 1020.5 hPa West 4.8 km/h 17.7 km/h 62% 0 mm
18:09 25.6 °C 17.2 °C 1020.5 hPa NW 6.4 km/h 14.5 km/h 60% 0 mm
18:14 25.4 °C 16.8 °C 1020.5 hPa WSW 6.4 km/h 19.3 km/h 59% 0 mm
18:19 25.6 °C 16.9 °C 1020.5 hPa WSW 16.1 km/h 19.3 km/h 59% 0 mm
18:24 25.2 °C 16.9 °C 1020.5 hPa WSW 6.4 km/h 19.3 km/h 60% 0 mm
18:29 25.2 °C 16.9 °C 1020.5 hPa WSW 6.4 km/h 19.3 km/h 60% 0 mm
18:34 25.1 °C 17 °C 1020.5 hPa WSW 6.4 km/h 14.5 km/h 61% 0 mm
18:39 24.8 °C 16.8 °C 1020.5 hPa WSW 8 km/h 14.5 km/h 61% 0 mm
18:44 24.8 °C 17 °C 1020.5 hPa WSW 6.4 km/h 12.9 km/h 62% 0 mm
18:49 24.7 °C 16.9 °C 1020.5 hPa WNW 4.8 km/h 9.7 km/h 62% 0 mm
18:54 24.7 °C 16.9 °C 1020.5 hPa West 4.8 km/h 11.3 km/h 62% 0 mm
18:59 24.6 °C 16.8 °C 1020.5 hPa SSW 8 km/h 14.5 km/h 62% 0 mm
19:04 24.4 °C 16.7 °C 1020.5 hPa South 4.8 km/h 12.9 km/h 62% 0 mm
19:09 24.4 °C 16.6 °C 1020.9 hPa SW 6.4 km/h 16.1 km/h 62% 0 mm
19:14 24.4 °C 16.9 °C 1020.9 hPa WSW 6.4 km/h 9.7 km/h 63% 0 mm
19:19 24.2 °C 16.5 °C 1020.9 hPa SW 6.4 km/h 14.5 km/h 62% 0 mm
19:24 24.2 °C 16.7 °C 1020.9 hPa WSW 6.4 km/h 14.5 km/h 63% 0 mm
19:29 24.1 °C 16.6 °C 1020.9 hPa WSW 6.4 km/h 11.3 km/h 63% 0 mm
19:34 23.9 °C 16.7 °C 1020.9 hPa SW 4.8 km/h 11.3 km/h 64% 0 mm
19:39 23.8 °C 16.6 °C 1020.9 hPa SW 4.8 km/h 9.7 km/h 64% 0 mm
19:44 23.7 °C 16.7 °C 1020.9 hPa SW 6.4 km/h 12.9 km/h 65% 0 mm
19:49 23.5 °C 17 °C 1021.2 hPa SW 4.8 km/h 12.9 km/h 67% 0 mm
19:54 23.3 °C 16.8 °C 1020.9 hPa SW 4.8 km/h 8 km/h 67% 0 mm
19:59 23.2 °C 16.7 °C 1020.9 hPa SW 9.7 km/h 12.9 km/h 67% 0 mm
20:04 23.1 °C 16.7 °C 1020.9 hPa WSW 4.8 km/h 11.3 km/h 67% 0 mm
20:09 23 °C 16.8 °C 1020.9 hPa SW 8 km/h 11.3 km/h 68% 0 mm
20:14 22.9 °C 16.7 °C 1020.9 hPa SW 6.4 km/h 8 km/h 68% 0 mm
20:19 22.8 °C 16.8 °C 1020.9 hPa WSW 1.6 km/h 8 km/h 69% 0 mm
20:24 22.6 °C 16.8 °C 1020.9 hPa SW 3.2 km/h 8 km/h 70% 0 mm
20:29 22.3 °C 16.8 °C 1020.9 hPa SW 3.2 km/h 8 km/h 71% 0 mm
20:34 22.3 °C 17.1 °C 1021.2 hPa SSW 4.8 km/h 8 km/h 72% 0 mm
20:39 22.3 °C 17 °C 1021.2 hPa SW 4.8 km/h 9.7 km/h 72% 0 mm
20:44 22.2 °C 16.9 °C 1021.2 hPa SW 1.6 km/h 9.7 km/h 72% 0 mm
20:49 22.1 °C 17 °C 1021.2 hPa South 4.8 km/h 8 km/h 73% 0 mm
20:54 21.9 °C 17.1 °C 1021.2 hPa SSW 4.8 km/h 6.4 km/h 74% 0 mm
20:59 21.8 °C 17.2 °C 1021.2 hPa SSW 3.2 km/h 6.4 km/h 75% 0 mm
21:04 21.8 °C 17.2 °C 1021.2 hPa SW 4.8 km/h 8 km/h 75% 0 mm
21:09 21.7 °C 17.3 °C 1021.6 hPa SW 4.8 km/h 8 km/h 76% 0 mm
21:14 21.6 °C 17.2 °C 1021.6 hPa Calm   4.8 km/h 76% 0 mm
21:19 21.5 °C 17.3 °C 1021.6 hPa SW 1.6 km/h 6.4 km/h 77% 0 mm
21:24 21.3 °C 17.1 °C 1021.6 hPa Calm   4.8 km/h 77% 0 mm
21:29 21.3 °C 17.3 °C 1021.6 hPa SW 1.6 km/h 4.8 km/h 78% 0 mm
21:34 21.2 °C 17.2 °C 1021.6 hPa SW 1.6 km/h 4.8 km/h 78% 0 mm
21:39 21.1 °C 17.3 °C 1021.6 hPa Calm   3.2 km/h 79% 0 mm
21:44 21 °C 17.2 °C 1021.6 hPa Calm     79% 0 mm
21:49 20.9 °C 17.3 °C 1021.6 hPa Calm   4.8 km/h 80% 0 mm
21:54 20.8 °C 17.4 °C 1021.9 hPa SW 1.6 km/h 3.2 km/h 81% 0 mm
21:59 20.7 °C 17.3 °C 1021.9 hPa Calm   3.2 km/h 81% 0 mm
22:04 20.6 °C 17.2 °C 1021.6 hPa Calm   3.2 km/h 81% 0 mm
22:09 20.5 °C 16.9 °C 1021.9 hPa Calm   3.2 km/h 80% 0 mm
22:14 20.4 °C 16.8 °C 1021.6 hPa Calm   4.8 km/h 80% 0 mm
22:19 20.3 °C 16.6 °C 1021.9 hPa SW 1.6 km/h 4.8 km/h 79% 0 mm
22:24 20.3 °C 16.6 °C 1021.9 hPa SW 1.6 km/h 4.8 km/h 79% 0 mm
22:29 20.2 °C 16.4 °C 1021.9 hPa Calm   4.8 km/h 79% 0 mm
22:34 20.2 °C 16.4 °C 1021.9 hPa Calm   4.8 km/h 79% 0 mm
22:39 20.1 °C 16.3 °C 1021.9 hPa Calm     79% 0 mm
22:44 20 °C 16.2 °C 1021.9 hPa Calm   4.8 km/h 79% 0 mm
22:49 19.9 °C 16.1 °C 1021.9 hPa Calm   1.6 km/h 79% 0 mm
22:54 19.8 °C 16.2 °C 1021.9 hPa Calm     80% 0 mm
22:59 19.7 °C 16.2 °C 1021.9 hPa Calm     80% 0 mm
23:04 19.5 °C 15.9 °C 1021.9 hPa Calm     80% 0 mm
23:09 19.4 °C 16.1 °C 1021.9 hPa Calm     81% 0 mm
23:15 19.4 °C 15.8 °C 1021.9 hPa Calm     80% 0 mm
23:24 19 °C 15.7 °C 1021.9 hPa Calm     81% 0 mm
23:29 18.9 °C 15.4 °C 1021.9 hPa Calm     80% 0 mm
23:34 18.8 °C 15.3 °C 1022.2 hPa Calm     80% 0 mm
23:39 18.8 °C 15.3 °C 1022.2 hPa Calm   6.4 km/h 80% 0 mm
23:44 18.8 °C 15.1 °C 1021.9 hPa Calm   1.6 km/h 79% 0 mm
23:49 18.8 °C 15.1 °C 1021.9 hPa Calm   3.2 km/h 79% 0 mm
23:54 18.7 °C 14.9 °C 1021.9 hPa Calm     79% 0 mm
23:59 18.6 °C 14.8 °C 1021.9 hPa Calm   3.2 km/h 79% 0 mm
Buffalo, New York, USA
Compliments of Weather Underground - 2.5 mb